createdAt,value
2019-04-30T00:02:34.626Z,19.80
2019-04-30T00:05:00.697Z,19.27
2019-04-30T00:07:31.515Z,16.70
2019-04-30T00:10:02.071Z,17.13
2019-04-30T00:12:35.954Z,19.17
2019-04-30T00:15:06.242Z,18.60
2019-04-30T00:17:36.868Z,17.60
2019-04-30T00:20:07.506Z,15.47
2019-04-30T00:22:46.469Z,16.63
2019-04-30T00:25:11.224Z,17.63
2019-04-30T00:27:41.815Z,20.93
2019-04-30T00:30:12.344Z,18.73
2019-04-30T00:32:43.685Z,19.53
2019-04-30T00:35:16.283Z,20.70
2019-04-30T00:37:51.699Z,18.57
2019-04-30T00:40:21.728Z,16.67
2019-04-30T00:42:51.719Z,16.73
2019-04-30T00:45:22.100Z,19.63
2019-04-30T00:47:52.693Z,17.23
2019-04-30T00:50:24.784Z,22.27
2019-04-30T00:52:55.553Z,16.97
2019-04-30T00:55:27.551Z,21.77
2019-04-30T00:57:57.974Z,16.63
2019-04-30T01:00:29.692Z,22.23
2019-04-30T01:03:19.766Z,20.27
2019-04-30T01:05:50.219Z,15.03
2019-04-30T01:08:21.168Z,18.23
2019-04-30T01:10:52.782Z,21.67
2019-04-30T01:13:24.177Z,22.43
2019-04-30T01:15:54.564Z,15.17
2019-04-30T01:18:28.615Z,18.33
2019-04-30T01:20:58.684Z,19.50
2019-04-30T01:23:29.671Z,20.90
2019-04-30T01:26:01.503Z,20.87
2019-04-30T01:28:32.127Z,22.67
2019-04-30T01:31:02.579Z,15.93
2019-04-30T01:33:34.528Z,20.80
2019-04-30T01:36:09.588Z,21.63
2019-04-30T01:38:40.035Z,19.47
2019-04-30T01:41:10.258Z,23.73
2019-04-30T01:43:40.677Z,18.57
2019-04-30T01:46:13.827Z,19.80
2019-04-30T01:48:43.705Z,16.63
2019-04-30T01:51:18.393Z,17.20
2019-04-30T01:53:48.519Z,20.60
2019-04-30T01:56:20.559Z,17.07
2019-04-30T01:58:52.627Z,19.53
2019-04-30T02:01:24.651Z,20.87
2019-04-30T02:03:55.069Z,20.20
2019-04-30T02:06:25.525Z,18.37
2019-04-30T02:08:55.948Z,16.57
2019-04-30T02:11:26.332Z,15.83
2019-04-30T02:13:56.746Z,20.20
2019-04-30T02:16:29.018Z,17.93
2019-04-30T02:19:00.478Z,19.17
2019-04-30T02:21:33.234Z,22.60
2019-04-30T02:24:02.977Z,19.00
2019-04-30T02:26:33.360Z,17.40
2019-04-30T02:29:03.790Z,17.93
2019-04-30T02:31:35.144Z,16.47
2019-04-30T02:34:10.012Z,18.93
2019-04-30T02:36:52.845Z,22.87
2019-04-30T02:39:23.334Z,21.27
2019-04-30T02:41:54.455Z,16.17
2019-04-30T02:44:25.587Z,23.23
2019-04-30T02:47:00.449Z,21.20
2019-04-30T02:49:32.768Z,26.23
2019-04-30T02:52:04.776Z,20.13
2019-04-30T02:54:36.540Z,23.70
2019-04-30T02:57:11.282Z,19.83
2019-04-30T02:59:59.949Z,20.87
2019-04-30T03:02:31.630Z,19.00
2019-04-30T03:05:02.366Z,22.40
2019-04-30T03:07:32.787Z,18.07
2019-04-30T03:10:03.512Z,24.57
2019-04-30T03:12:34.239Z,16.97
2019-04-30T03:15:06.337Z,22.87
2019-04-30T03:17:50.361Z,18.93
2019-04-30T03:20:35.675Z,20.67
2019-04-30T03:23:02.452Z,22.60
2019-04-30T03:25:33.095Z,16.53
2019-04-30T03:28:03.509Z,18.80
2019-04-30T03:30:33.903Z,18.60
2019-04-30T03:33:04.403Z,23.33
2019-04-30T03:35:34.815Z,21.90
2019-04-30T03:38:05.287Z,40.93
2019-04-30T03:40:35.672Z,36.90
2019-04-30T03:43:06.095Z,35.13
2019-04-30T03:45:36.474Z,22.33
2019-04-30T03:48:09.943Z,25.30
2019-04-30T03:50:50.371Z,26.60
2019-04-30T03:53:11.103Z,21.73
2019-04-30T03:55:41.482Z,28.80
2019-04-30T03:58:11.908Z,26.40
2019-04-30T04:01:00.464Z,25.33
2019-04-30T04:03:33.587Z,25.00
2019-04-30T04:06:21.564Z,27.23
2019-04-30T04:08:56.427Z,24.30
2019-04-30T04:11:29.814Z,23.90
2019-04-30T04:14:00.550Z,26.77
2019-04-30T04:16:32.273Z,34.70
2019-04-30T04:19:03.147Z,24.63
2019-04-30T04:21:33.551Z,85.33
2019-04-30T04:24:04.361Z,54.13
2019-04-30T04:26:34.762Z,32.87
2019-04-30T04:29:05.587Z,29.37
2019-04-30T04:31:35.969Z,50.83
2019-04-30T04:34:09.156Z,88.53
2019-04-30T04:36:39.939Z,39.73
2019-04-30T04:39:10.762Z,25.33
2019-04-30T04:41:44.077Z,33.37
2019-04-30T04:44:13.350Z,26.97
2019-04-30T04:46:43.740Z,16.97
2019-04-30T04:49:14.162Z,23.70
2019-04-30T04:51:44.552Z,19.83
2019-04-30T04:54:14.990Z,36.77
2019-04-30T04:56:45.375Z,17.77
2019-04-30T04:59:15.870Z,22.90
2019-04-30T05:01:46.261Z,24.63
2019-04-30T05:04:16.682Z,19.37
2019-04-30T05:06:49.330Z,23.30
2019-04-30T05:09:19.534Z,18.00
2019-04-30T05:11:49.970Z,21.97
2019-04-30T05:14:20.467Z,16.23
2019-04-30T05:16:50.850Z,20.00
2019-04-30T05:19:21.277Z,22.07
2019-04-30T05:21:51.805Z,13.87
2019-04-30T05:24:22.265Z,17.17
2019-04-30T05:26:52.738Z,19.20
2019-04-30T05:29:23.156Z,17.40
2019-04-30T05:31:53.624Z,21.83
2019-04-30T05:34:24.061Z,19.40
2019-04-30T05:36:54.447Z,22.33
2019-04-30T05:39:24.880Z,17.37
2019-04-30T05:41:55.265Z,17.73
2019-04-30T05:44:25.695Z,16.00
2019-04-30T05:46:56.088Z,15.50
2019-04-30T05:49:26.537Z,21.17
2019-04-30T05:51:56.936Z,19.37
2019-04-30T05:54:29.141Z,42.30
2019-04-30T05:56:59.519Z,17.97
2019-04-30T05:59:30.020Z,14.77
2019-04-30T06:02:00.448Z,19.10
2019-04-30T06:04:30.908Z,16.23
2019-04-30T06:07:01.340Z,18.43
2019-04-30T06:09:42.229Z,16.30
2019-04-30T06:12:18.757Z,15.57
2019-04-30T06:14:59.544Z,20.97
2019-04-30T06:17:33.695Z,16.80
2019-04-30T06:20:16.142Z,19.40
2019-04-30T06:22:38.655Z,14.17
2019-04-30T06:25:10.869Z,15.43
2019-04-30T06:27:41.648Z,23.07
2019-04-30T06:30:12.449Z,16.57
2019-04-30T06:32:43.226Z,15.10
2019-04-30T06:35:13.856Z,15.40
2019-04-30T06:37:44.294Z,22.27
2019-04-30T06:40:15.992Z,13.77
2019-04-30T06:42:46.487Z,16.57
2019-04-30T06:45:18.989Z,13.10
2019-04-30T06:47:49.698Z,16.07
2019-04-30T06:50:20.227Z,16.27
2019-04-30T06:52:56.809Z,15.60
2019-04-30T06:55:24.300Z,15.33
2019-04-30T06:57:56.409Z,12.50
2019-04-30T07:00:40.419Z,16.80
2019-04-30T07:03:11.165Z,13.17
2019-04-30T07:05:41.569Z,11.37
2019-04-30T07:08:37.361Z,17.17
2019-04-30T07:11:21.952Z,13.37
2019-04-30T07:13:52.595Z,18.07
2019-04-30T07:16:23.134Z,16.63
2019-04-30T07:18:53.571Z,13.00
2019-04-30T07:21:24.044Z,21.37
2019-04-30T07:23:54.553Z,18.93
2019-04-30T07:26:25.025Z,19.10
2019-04-30T07:28:55.668Z,13.50
2019-04-30T07:31:29.402Z,18.70
2019-04-30T07:33:59.885Z,19.70
2019-04-30T07:36:45.205Z,14.67
2019-04-30T07:39:02.736Z,15.77
2019-04-30T07:41:33.727Z,13.13
2019-04-30T07:44:04.328Z,17.13
2019-04-30T07:46:35.278Z,18.82
2019-04-30T07:49:06.884Z,16.27
2019-04-30T07:51:40.412Z,15.83
2019-04-30T07:54:09.468Z,18.27
2019-04-30T07:56:41.727Z,16.42
2019-04-30T07:59:11.989Z,17.05
2019-04-30T08:02:00.550Z,13.60
2019-04-30T08:04:25.786Z,16.00
2019-04-30T08:06:59.687Z,12.50
2019-04-30T08:09:39.130Z,16.35
2019-04-30T08:12:02.381Z,16.02
2019-04-30T08:14:32.953Z,14.03
2019-04-30T08:17:03.354Z,10.90
2019-04-30T08:19:33.808Z,14.10
2019-04-30T08:22:04.603Z,16.37
2019-04-30T08:24:35.353Z,9.48
2019-04-30T08:27:05.812Z,12.93
2019-04-30T08:29:36.262Z,14.23
2019-04-30T08:32:08.842Z,9.28
2019-04-30T08:34:39.387Z,13.60
2019-04-30T08:37:17.240Z,16.85
2019-04-30T08:39:42.044Z,20.97
2019-04-30T08:42:12.439Z,10.23
2019-04-30T08:44:42.869Z,12.88
2019-04-30T08:47:13.266Z,15.28
2019-04-30T08:49:43.939Z,16.70
2019-04-30T08:52:14.567Z,14.85
2019-04-30T08:54:44.994Z,9.53
2019-04-30T08:57:15.388Z,14.13
2019-04-30T08:59:45.823Z,11.83
2019-04-30T09:02:16.662Z,14.33
2019-04-30T09:04:49.299Z,12.70
2019-04-30T09:07:19.948Z,11.97
2019-04-30T09:09:50.413Z,13.53
2019-04-30T09:12:20.810Z,12.03
2019-04-30T09:14:51.251Z,9.48
2019-04-30T09:17:21.852Z,9.75
2019-04-30T09:19:52.390Z,11.30
2019-04-30T09:22:22.888Z,10.23
2019-04-30T09:24:53.320Z,12.33
2019-04-30T09:27:23.711Z,13.78
2019-04-30T09:29:54.224Z,14.55
2019-04-30T09:32:24.621Z,12.15
2019-04-30T09:34:55.062Z,12.33
2019-04-30T09:37:25.451Z,21.70
2019-04-30T09:39:55.887Z,12.88
2019-04-30T09:42:26.285Z,11.90
2019-04-30T09:44:59.082Z,11.40
2019-04-30T09:47:29.606Z,10.43
2019-04-30T09:50:03.113Z,12.10
2019-04-30T09:52:35.911Z,14.20
2019-04-30T09:55:06.880Z,10.40
2019-04-30T09:57:39.021Z,11.75
2019-04-30T10:00:11.057Z,11.33
2019-04-30T10:02:41.796Z,17.07
2019-04-30T10:05:13.302Z,14.33
2019-04-30T10:07:45.149Z,17.32
2019-04-30T10:10:18.966Z,18.35
2019-04-30T10:12:49.400Z,11.85
2019-04-30T10:15:28.944Z,12.75
2019-04-30T10:17:59.430Z,10.90
2019-04-30T10:20:44.441Z,19.95
2019-04-30T10:23:14.880Z,11.00
2019-04-30T10:25:45.268Z,11.57
2019-04-30T10:28:15.856Z,15.35
2019-04-30T10:30:46.256Z,14.80
2019-04-30T10:33:16.762Z,11.53
2019-04-30T10:35:47.234Z,21.00
2019-04-30T10:38:19.496Z,17.35
2019-04-30T10:40:50.047Z,23.12
2019-04-30T10:43:20.547Z,15.38
2019-04-30T10:45:51.154Z,12.20
2019-04-30T10:48:21.657Z,17.75
2019-04-30T10:50:52.443Z,8.35
2019-04-30T10:53:22.963Z,16.87
2019-04-30T10:55:53.506Z,9.85
2019-04-30T10:58:23.960Z,12.45
2019-04-30T11:00:54.502Z,12.80
2019-04-30T11:03:25.020Z,12.70
2019-04-30T11:05:55.487Z,12.10
2019-04-30T11:08:26.041Z,9.05
2019-04-30T11:10:56.536Z,13.90
2019-04-30T11:13:27.031Z,14.75
2019-04-30T11:16:02.611Z,18.35
2019-04-30T11:18:31.352Z,12.40
2019-04-30T11:21:02.321Z,11.40
2019-04-30T11:23:32.990Z,9.55
2019-04-30T11:26:04.070Z,13.60
2019-04-30T11:28:35.213Z,9.58
2019-04-30T11:31:26.545Z,13.78
2019-04-30T11:34:01.589Z,12.47
2019-04-30T11:36:32.222Z,10.50
2019-04-30T11:39:02.662Z,11.55
2019-04-30T11:41:34.820Z,10.90
2019-04-30T11:44:05.395Z,9.35
2019-04-30T11:46:59.892Z,12.90
2019-04-30T11:49:30.592Z,11.50
2019-04-30T11:52:00.988Z,16.85
2019-04-30T11:54:31.570Z,10.13
2019-04-30T11:57:02.144Z,8.93
2019-04-30T11:59:32.580Z,10.65
2019-04-30T12:02:04.603Z,9.65
2019-04-30T12:04:35.038Z,12.25
2019-04-30T12:07:10.271Z,6.72
2019-04-30T12:09:56.892Z,10.10
2019-04-30T12:12:28.925Z,11.95
2019-04-30T12:15:02.557Z,13.15
2019-04-30T12:17:31.585Z,11.33
2019-04-30T12:20:02.101Z,18.92
2019-04-30T12:22:32.484Z,14.83
2019-04-30T12:25:05.511Z,11.60
2019-04-30T12:27:36.142Z,10.60
2019-04-30T12:30:09.897Z,12.63
2019-04-30T12:32:40.427Z,10.90
2019-04-30T12:35:12.445Z,6.28
2019-04-30T12:37:42.833Z,7.92
2019-04-30T12:40:25.817Z,7.60
2019-04-30T12:42:45.734Z,9.28
2019-04-30T12:45:16.399Z,8.58
2019-04-30T12:47:51.257Z,12.15
2019-04-30T12:50:23.473Z,11.90
2019-04-30T12:53:01.089Z,12.18
2019-04-30T12:55:41.620Z,10.40
2019-04-30T12:58:12.009Z,9.48
2019-04-30T13:00:42.516Z,8.45
2019-04-30T13:03:12.910Z,15.23
2019-04-30T13:05:43.639Z,13.80
2019-04-30T13:08:14.652Z,14.55
2019-04-30T13:10:46.147Z,10.45
2019-04-30T13:13:17.396Z,10.45
2019-04-30T13:15:48.324Z,8.90
2019-04-30T13:18:19.492Z,8.70
2019-04-30T13:20:50.164Z,14.28
2019-04-30T13:23:20.604Z,9.68
2019-04-30T13:25:51.784Z,9.07
2019-04-30T13:28:23.944Z,9.80
2019-04-30T13:30:54.374Z,9.17
2019-04-30T13:33:29.373Z,18.83
2019-04-30T13:35:59.813Z,12.55
2019-04-30T13:38:47.447Z,10.00
2019-04-30T13:41:12.845Z,12.57
2019-04-30T13:43:58.630Z,33.63
2019-04-30T13:46:28.851Z,7.53
2019-04-30T13:48:59.314Z,7.73
2019-04-30T13:51:29.708Z,12.80
2019-04-30T13:54:00.455Z,16.93
2019-04-30T13:56:31.219Z,14.83
2019-04-30T13:59:02.639Z,16.43
2019-04-30T14:01:34.069Z,12.97
2019-04-30T14:04:17.830Z,13.30
2019-04-30T14:06:49.931Z,9.17
2019-04-30T14:09:24.796Z,12.37
2019-04-30T14:11:55.263Z,10.67
2019-04-30T14:14:25.699Z,23.70
2019-04-30T14:16:56.242Z,10.35
2019-04-30T14:19:26.740Z,9.40
2019-04-30T14:21:58.894Z,9.27
2019-04-30T14:24:29.458Z,10.60
2019-04-30T14:26:59.847Z,11.43
2019-04-30T14:29:30.358Z,14.03
2019-04-30T14:32:00.749Z,13.00
2019-04-30T14:34:31.260Z,9.13
2019-04-30T14:37:02.056Z,13.60
2019-04-30T14:39:32.638Z,8.30
2019-04-30T14:42:03.855Z,11.27
2019-04-30T14:44:36.976Z,10.90
2019-04-30T14:47:16.004Z,10.60
2019-04-30T14:50:02.715Z,7.10
2019-04-30T14:52:31.285Z,11.10
2019-04-30T14:55:09.087Z,8.77
2019-04-30T14:57:46.832Z,8.40
2019-04-30T15:00:24.463Z,8.20
2019-04-30T15:02:59.290Z,8.67
2019-04-30T15:05:39.154Z,12.27
2019-04-30T15:08:01.968Z,15.63
2019-04-30T15:10:32.477Z,19.07
2019-04-30T15:13:02.916Z,12.80
2019-04-30T15:15:33.484Z,7.77
2019-04-30T15:18:04.014Z,11.90
2019-04-30T15:20:34.482Z,9.73
2019-04-30T15:23:08.689Z,8.17
2019-04-30T15:25:38.888Z,12.63
2019-04-30T15:28:09.892Z,10.27
2019-04-30T15:30:42.024Z,10.50
2019-04-30T15:33:14.361Z,13.50
2019-04-30T15:35:44.755Z,13.63
2019-04-30T15:38:15.204Z,13.13
2019-04-30T15:40:45.600Z,7.17
2019-04-30T15:43:16.111Z,6.63
2019-04-30T15:45:49.385Z,12.30
2019-04-30T15:48:19.876Z,6.30
2019-04-30T15:50:50.355Z,11.20
2019-04-30T15:53:20.857Z,14.87
2019-04-30T15:55:51.254Z,9.83
2019-04-30T15:58:24.287Z,8.63
2019-04-30T16:00:54.675Z,6.93
2019-04-30T16:03:29.588Z,9.43
2019-04-30T16:06:00.119Z,15.50
2019-04-30T16:08:32.731Z,13.53
2019-04-30T16:11:07.384Z,7.50
2019-04-30T16:13:39.461Z,16.07
2019-04-30T16:16:13.132Z,12.60
2019-04-30T16:18:50.641Z,9.03
2019-04-30T16:21:21.086Z,29.77
2019-04-30T16:23:51.731Z,9.33
2019-04-30T16:26:22.172Z,11.37
2019-04-30T16:28:52.612Z,9.80
2019-04-30T16:31:23.046Z,12.60
2019-04-30T16:33:53.443Z,11.47
2019-04-30T16:36:24.038Z,10.13
2019-04-30T16:38:54.638Z,11.80
2019-04-30T16:41:31.453Z,9.00
2019-04-30T16:43:59.286Z,12.23
2019-04-30T16:46:31.111Z,12.23
2019-04-30T16:49:02.098Z,10.57
2019-04-30T16:51:32.546Z,11.30
2019-04-30T16:54:02.935Z,15.00
2019-04-30T16:56:33.954Z,12.40
2019-04-30T16:59:06.142Z,10.73
2019-04-30T17:01:36.838Z,11.40
2019-04-30T17:04:24.176Z,10.57
2019-04-30T17:07:01.995Z,14.57
2019-04-30T17:09:37.074Z,9.90
2019-04-30T17:12:09.219Z,12.20
2019-04-30T17:14:41.250Z,10.20
2019-04-30T17:17:11.926Z,10.27
2019-04-30T17:19:42.640Z,12.93
2019-04-30T17:22:13.639Z,12.63
2019-04-30T17:24:44.029Z,10.63
2019-04-30T17:27:19.510Z,14.37
2019-04-30T17:29:48.192Z,14.47
2019-04-30T17:32:18.718Z,13.10
2019-04-30T17:34:49.285Z,14.07
2019-04-30T17:37:19.838Z,14.73
2019-04-30T17:39:52.870Z,20.47
2019-04-30T17:42:22.498Z,23.03
2019-04-30T17:44:58.476Z,15.23
2019-04-30T17:47:25.034Z,15.57
2019-04-30T17:49:55.431Z,11.27
2019-04-30T17:52:29.670Z,14.73
2019-04-30T17:54:59.696Z,13.77
2019-04-30T17:57:34.424Z,17.37
2019-04-30T18:00:15.601Z,21.57
2019-04-30T18:02:35.769Z,18.80
2019-04-30T18:05:09.139Z,16.80
2019-04-30T18:07:40.406Z,17.67
2019-04-30T18:10:13.361Z,16.43
2019-04-30T18:12:44.078Z,18.93
2019-04-30T18:15:17.073Z,14.73
2019-04-30T18:17:49.294Z,20.40
2019-04-30T18:20:21.421Z,13.13
2019-04-30T18:23:00.531Z,16.83
2019-04-30T18:25:47.834Z,18.00
2019-04-30T18:28:19.244Z,15.63
2019-04-30T18:30:49.816Z,16.97
2019-04-30T18:33:20.297Z,22.13
2019-04-30T18:35:50.841Z,22.23
2019-04-30T18:38:21.458Z,18.07
2019-04-30T18:40:53.309Z,17.17
2019-04-30T18:43:23.775Z,19.03
2019-04-30T18:45:54.443Z,20.57
2019-04-30T18:48:24.997Z,16.30
2019-04-30T18:50:55.424Z,30.73
2019-04-30T18:53:28.593Z,20.07
2019-04-30T18:55:59.288Z,29.67
2019-04-30T18:58:39.602Z,37.33
2019-04-30T19:01:02.254Z,37.87
2019-04-30T19:03:32.846Z,42.13
2019-04-30T19:06:05.894Z,43.63
2019-04-30T19:08:43.768Z,67.10
2019-04-30T19:11:31.701Z,64.97
2019-04-30T19:14:03.830Z,61.00
2019-04-30T19:16:53.545Z,41.90
2019-04-30T19:19:37.513Z,42.53
2019-04-30T19:22:09.137Z,41.20
2019-04-30T19:24:52.208Z,33.90
2019-04-30T19:27:12.126Z,43.13
2019-04-30T19:29:46.771Z,39.30
2019-04-30T19:32:17.406Z,34.00
2019-04-30T19:34:48.970Z,25.40
2019-04-30T19:37:19.777Z,26.07
2019-04-30T19:39:51.094Z,23.67
2019-04-30T19:42:21.782Z,30.97
2019-04-30T19:45:00.665Z,25.53
2019-04-30T19:47:24.607Z,29.20
2019-04-30T19:49:55.105Z,24.97
2019-04-30T19:52:25.752Z,26.70
2019-04-30T19:54:56.397Z,25.37
2019-04-30T19:57:28.606Z,29.47
2019-04-30T19:59:59.133Z,28.53
2019-04-30T20:02:29.896Z,25.20
2019-04-30T20:05:02.631Z,23.70
2019-04-30T20:07:33.432Z,25.93
2019-04-30T20:10:05.858Z,29.53
2019-04-30T20:12:36.413Z,23.70
2019-04-30T20:15:17.190Z,24.00
2019-04-30T20:17:42.178Z,20.40
2019-04-30T20:20:12.807Z,20.33
2019-04-30T20:22:43.313Z,17.80
2019-04-30T20:25:14.858Z,19.03
2019-04-30T20:27:45.323Z,22.80
2019-04-30T20:30:15.917Z,19.80
2019-04-30T20:32:46.368Z,24.07
2019-04-30T20:35:16.893Z,20.57
2019-04-30T20:38:05.188Z,21.37
2019-04-30T20:40:43.252Z,17.70
2019-04-30T20:43:09.244Z,19.00
2019-04-30T20:45:39.827Z,24.33
2019-04-30T20:48:10.267Z,16.10
2019-04-30T20:50:41.656Z,17.00
2019-04-30T20:53:12.562Z,21.30
2019-04-30T20:55:47.098Z,16.53
2019-04-30T20:58:19.727Z,24.73
2019-04-30T21:01:01.135Z,21.80
2019-04-30T21:03:25.311Z,24.27
2019-04-30T21:05:55.689Z,20.07
2019-04-30T21:08:26.181Z,21.07
2019-04-30T21:10:56.630Z,18.47
2019-04-30T21:13:29.322Z,20.47
2019-04-30T21:16:01.889Z,23.30
2019-04-30T21:18:40.388Z,26.80
2019-04-30T21:21:24.437Z,23.93
2019-04-30T21:23:54.872Z,20.67
2019-04-30T21:26:25.255Z,22.43
2019-04-30T21:29:10.408Z,18.77
2019-04-30T21:31:47.919Z,24.57
2019-04-30T21:34:29.402Z,22.20
2019-04-30T21:37:00.174Z,20.60
2019-04-30T21:39:32.231Z,23.37
2019-04-30T21:42:03.289Z,20.13
2019-04-30T21:44:33.911Z,24.97
2019-04-30T21:47:04.295Z,27.00
2019-04-30T21:49:35.014Z,33.13
2019-04-30T21:52:05.830Z,36.13
2019-04-30T21:54:38.757Z,43.37
2019-04-30T21:57:09.237Z,44.07
2019-04-30T21:59:39.657Z,51.23
2019-04-30T22:02:10.313Z,52.33
2019-04-30T22:04:40.738Z,39.63
2019-04-30T22:07:11.596Z,46.87
2019-04-30T22:09:43.371Z,48.40
2019-04-30T22:12:13.789Z,63.40
2019-04-30T22:14:44.215Z,48.53
2019-04-30T22:17:14.665Z,39.03
2019-04-30T22:19:45.141Z,38.00
2019-04-30T22:22:15.571Z,37.73
2019-04-30T22:24:46.019Z,40.23
2019-04-30T22:27:17.509Z,32.83
2019-04-30T22:29:48.973Z,35.87
2019-04-30T22:32:19.362Z,38.03
2019-04-30T22:34:49.793Z,42.10
2019-04-30T22:37:20.182Z,38.70
2019-04-30T22:39:54.943Z,42.70
2019-04-30T22:42:35.107Z,37.83
2019-04-30T22:45:08.703Z,45.33
2019-04-30T22:47:39.156Z,45.37
2019-04-30T22:50:10.216Z,51.90
2019-04-30T22:52:40.643Z,52.67
2019-04-30T22:55:11.357Z,53.33
2019-04-30T22:57:41.784Z,40.10
2019-04-30T23:00:14.752Z,42.67
2019-04-30T23:02:48.438Z,40.60
2019-04-30T23:05:18.958Z,22.83
2019-04-30T23:07:49.387Z,33.10
2019-04-30T23:10:19.843Z,29.00
2019-04-30T23:12:50.269Z,35.73
2019-04-30T23:15:21.375Z,24.17
2019-04-30T23:17:51.790Z,27.50
2019-04-30T23:20:22.170Z,26.70
2019-04-30T23:22:52.614Z,25.13
2019-04-30T23:25:23.033Z,21.57
2019-04-30T23:27:53.446Z,20.80
2019-04-30T23:30:23.833Z,15.93
2019-04-30T23:32:54.325Z,17.63
2019-04-30T23:35:24.711Z,14.20
2019-04-30T23:37:55.133Z,15.73
2019-04-30T23:40:50.534Z,14.80
2019-04-30T23:43:21.420Z,15.80
2019-04-30T23:45:53.487Z,14.97
2019-04-30T23:48:23.919Z,17.07
2019-04-30T23:50:54.304Z,15.17
2019-04-30T23:53:24.736Z,16.43
2019-04-30T23:55:55.192Z,15.70
2019-04-30T23:58:25.686Z,11.00
